sensor_id;sensor_type;location;lat;lon;timestamp;P1;durP1;ratioP1;P2;durP2;ratioP2
71435;SDS011;59251;51.326;12.370;2023-04-21T00:00:50;36.83;;;17.83;;
71435;SDS011;59251;51.326;12.370;2023-04-21T00:03:16;38.08;;;19.10;;
71435;SDS011;59251;51.326;12.370;2023-04-21T00:05:44;39.57;;;18.50;;
71435;SDS011;59251;51.326;12.370;2023-04-21T00:08:10;39.33;;;18.88;;
71435;SDS011;59251;51.326;12.370;2023-04-21T00:10:35;40.53;;;20.45;;
71435;SDS011;59251;51.326;12.370;2023-04-21T00:13:00;42.50;;;18.97;;
71435;SDS011;59251;51.326;12.370;2023-04-21T00:15:26;39.53;;;18.63;;
71435;SDS011;59251;51.326;12.370;2023-04-21T00:17:51;40.03;;;18.90;;
71435;SDS011;59251;51.326;12.370;2023-04-21T00:20:17;39.33;;;18.60;;
71435;SDS011;59251;51.326;12.370;2023-04-21T00:22:42;40.60;;;19.63;;
71435;SDS011;59251;51.326;12.370;2023-04-21T00:25:08;42.30;;;19.40;;
71435;SDS011;59251;51.326;12.370;2023-04-21T00:27:33;42.77;;;20.00;;
71435;SDS011;59251;51.326;12.370;2023-04-21T00:29:59;40.42;;;19.70;;
71435;SDS011;59251;51.326;12.370;2023-04-21T00:32:24;38.53;;;19.38;;
71435;SDS011;59251;51.326;12.370;2023-04-21T00:34:50;42.50;;;19.60;;
71435;SDS011;59251;51.326;12.370;2023-04-21T00:37:15;41.47;;;19.50;;
71435;SDS011;59251;51.326;12.370;2023-04-21T00:39:41;44.80;;;20.13;;
71435;SDS011;59251;51.326;12.370;2023-04-21T00:42:06;43.78;;;20.38;;
71435;SDS011;59251;51.326;12.370;2023-04-21T00:44:31;37.75;;;18.92;;
71435;SDS011;59251;51.326;12.370;2023-04-21T00:46:56;40.80;;;19.90;;
71435;SDS011;59251;51.326;12.370;2023-04-21T00:49:22;47.20;;;21.10;;
71435;SDS011;59251;51.326;12.370;2023-04-21T00:51:48;47.83;;;21.30;;
71435;SDS011;59251;51.326;12.370;2023-04-21T00:54:14;45.47;;;22.63;;
71435;SDS011;59251;51.326;12.370;2023-04-21T00:56:41;41.53;;;20.83;;
71435;SDS011;59251;51.326;12.370;2023-04-21T00:59:07;51.87;;;21.60;;
71435;SDS011;59251;51.326;12.370;2023-04-21T01:01:32;44.03;;;21.03;;
71435;SDS011;59251;51.326;12.370;2023-04-21T01:03:58;46.30;;;22.45;;
71435;SDS011;59251;51.326;12.370;2023-04-21T01:06:26;49.08;;;20.73;;
71435;SDS011;59251;51.326;12.370;2023-04-21T01:08:53;46.80;;;21.85;;
71435;SDS011;59251;51.326;12.370;2023-04-21T01:11:19;45.17;;;21.87;;
71435;SDS011;59251;51.326;12.370;2023-04-21T01:13:45;46.58;;;22.65;;
71435;SDS011;59251;51.326;12.370;2023-04-21T01:16:15;41.25;;;21.85;;
71435;SDS011;59251;51.326;12.370;2023-04-21T01:18:42;46.00;;;21.67;;
71435;SDS011;59251;51.326;12.370;2023-04-21T01:21:08;49.42;;;22.73;;
71435;SDS011;59251;51.326;12.370;2023-04-21T01:23:33;44.37;;;20.90;;
71435;SDS011;59251;51.326;12.370;2023-04-21T01:25:59;48.38;;;21.65;;
71435;SDS011;59251;51.326;12.370;2023-04-21T01:28:24;51.87;;;22.03;;
71435;SDS011;59251;51.326;12.370;2023-04-21T01:30:50;45.75;;;23.02;;
71435;SDS011;59251;51.326;12.370;2023-04-21T01:33:16;48.57;;;23.13;;
71435;SDS011;59251;51.326;12.370;2023-04-21T01:35:43;45.53;;;22.10;;
71435;SDS011;59251;51.326;12.370;2023-04-21T01:38:08;44.42;;;20.10;;
71435;SDS011;59251;51.326;12.370;2023-04-21T01:40:34;48.67;;;23.23;;
71435;SDS011;59251;51.326;12.370;2023-04-21T01:43:00;46.17;;;21.80;;
71435;SDS011;59251;51.326;12.370;2023-04-21T01:45:25;47.30;;;21.23;;
71435;SDS011;59251;51.326;12.370;2023-04-21T01:47:51;49.70;;;21.93;;
71435;SDS011;59251;51.326;12.370;2023-04-21T01:50:16;44.60;;;21.05;;
71435;SDS011;59251;51.326;12.370;2023-04-21T01:52:42;41.50;;;21.20;;
71435;SDS011;59251;51.326;12.370;2023-04-21T01:55:07;48.43;;;22.90;;
71435;SDS011;59251;51.326;12.370;2023-04-21T01:57:33;46.90;;;21.85;;
71435;SDS011;59251;51.326;12.370;2023-04-21T01:59:59;43.07;;;20.60;;
71435;SDS011;59251;51.326;12.370;2023-04-21T02:02:24;46.27;;;21.77;;
71435;SDS011;59251;51.326;12.370;2023-04-21T02:04:50;43.92;;;20.95;;
71435;SDS011;59251;51.326;12.370;2023-04-21T02:07:15;43.00;;;21.07;;
71435;SDS011;59251;51.326;12.370;2023-04-21T02:09:40;45.00;;;21.97;;
71435;SDS011;59251;51.326;12.370;2023-04-21T02:12:06;53.03;;;23.60;;
71435;SDS011;59251;51.326;12.370;2023-04-21T02:14:32;46.53;;;21.67;;
71435;SDS011;59251;51.326;12.370;2023-04-21T02:16:57;50.50;;;22.90;;
71435;SDS011;59251;51.326;12.370;2023-04-21T02:19:22;43.70;;;20.47;;
71435;SDS011;59251;51.326;12.370;2023-04-21T02:21:48;40.08;;;19.63;;
71435;SDS011;59251;51.326;12.370;2023-04-21T02:24:13;43.67;;;21.33;;
71435;SDS011;59251;51.326;12.370;2023-04-21T02:26:39;39.93;;;19.63;;
71435;SDS011;59251;51.326;12.370;2023-04-21T02:29:04;43.63;;;20.70;;
71435;SDS011;59251;51.326;12.370;2023-04-21T02:31:29;49.00;;;20.90;;
71435;SDS011;59251;51.326;12.370;2023-04-21T02:33:55;43.78;;;20.90;;
71435;SDS011;59251;51.326;12.370;2023-04-21T02:36:20;42.22;;;21.50;;
71435;SDS011;59251;51.326;12.370;2023-04-21T02:38:46;39.37;;;19.20;;
71435;SDS011;59251;51.326;12.370;2023-04-21T02:41:11;36.57;;;18.60;;
71435;SDS011;59251;51.326;12.370;2023-04-21T02:43:36;37.23;;;18.53;;
71435;SDS011;59251;51.326;12.370;2023-04-21T02:46:05;41.60;;;18.70;;
71435;SDS011;59251;51.326;12.370;2023-04-21T02:48:31;40.38;;;19.08;;
71435;SDS011;59251;51.326;12.370;2023-04-21T02:50:57;36.78;;;18.10;;
71435;SDS011;59251;51.326;12.370;2023-04-21T02:53:22;38.23;;;17.07;;
71435;SDS011;59251;51.326;12.370;2023-04-21T02:55:48;35.77;;;17.77;;
71435;SDS011;59251;51.326;12.370;2023-04-21T02:58:13;37.70;;;18.23;;
71435;SDS011;59251;51.326;12.370;2023-04-21T03:00:39;40.23;;;17.93;;
71435;SDS011;59251;51.326;12.370;2023-04-21T03:03:05;35.25;;;17.63;;
71435;SDS011;59251;51.326;12.370;2023-04-21T03:05:30;37.13;;;17.33;;
71435;SDS011;59251;51.326;12.370;2023-04-21T03:07:55;36.77;;;17.83;;
71435;SDS011;59251;51.326;12.370;2023-04-21T03:10:21;40.85;;;18.77;;
71435;SDS011;59251;51.326;12.370;2023-04-21T03:12:46;32.77;;;16.60;;
71435;SDS011;59251;51.326;12.370;2023-04-21T03:15:12;42.83;;;19.50;;
71435;SDS011;59251;51.326;12.370;2023-04-21T03:17:38;50.30;;;18.58;;
71435;SDS011;59251;51.326;12.370;2023-04-21T03:20:07;38.42;;;18.00;;
71435;SDS011;59251;51.326;12.370;2023-04-21T03:22:34;39.93;;;18.57;;
71435;SDS011;59251;51.326;12.370;2023-04-21T03:24:59;36.78;;;18.50;;
71435;SDS011;59251;51.326;12.370;2023-04-21T03:27:25;37.80;;;17.20;;
71435;SDS011;59251;51.326;12.370;2023-04-21T03:29:50;37.33;;;17.23;;
71435;SDS011;59251;51.326;12.370;2023-04-21T03:32:15;40.17;;;17.10;;
71435;SDS011;59251;51.326;12.370;2023-04-21T03:34:41;35.93;;;16.23;;
71435;SDS011;59251;51.326;12.370;2023-04-21T03:37:06;39.63;;;17.43;;
71435;SDS011;59251;51.326;12.370;2023-04-21T03:39:31;38.93;;;16.90;;
71435;SDS011;59251;51.326;12.370;2023-04-21T03:41:57;35.93;;;17.47;;
71435;SDS011;59251;51.326;12.370;2023-04-21T03:44:24;37.63;;;18.23;;
71435;SDS011;59251;51.326;12.370;2023-04-21T03:46:53;33.75;;;15.20;;
71435;SDS011;59251;51.326;12.370;2023-04-21T03:49:19;38.30;;;16.33;;
71435;SDS011;59251;51.326;12.370;2023-04-21T03:51:45;34.03;;;16.13;;
71435;SDS011;59251;51.326;12.370;2023-04-21T03:54:10;29.75;;;14.20;;
71435;SDS011;59251;51.326;12.370;2023-04-21T03:56:36;32.73;;;15.57;;
71435;SDS011;59251;51.326;12.370;2023-04-21T03:59:01;34.97;;;14.27;;
71435;SDS011;59251;51.326;12.370;2023-04-21T04:01:26;33.53;;;15.00;;
71435;SDS011;59251;51.326;12.370;2023-04-21T04:03:52;28.83;;;13.73;;
71435;SDS011;59251;51.326;12.370;2023-04-21T04:06:17;30.55;;;14.68;;
71435;SDS011;59251;51.326;12.370;2023-04-21T04:08:42;29.92;;;14.25;;
71435;SDS011;59251;51.326;12.370;2023-04-21T04:11:08;31.07;;;14.87;;
71435;SDS011;59251;51.326;12.370;2023-04-21T04:13:33;30.27;;;15.10;;
71435;SDS011;59251;51.326;12.370;2023-04-21T04:15:59;31.80;;;15.60;;
71435;SDS011;59251;51.326;12.370;2023-04-21T04:18:24;31.40;;;14.77;;
71435;SDS011;59251;51.326;12.370;2023-04-21T04:20:49;30.80;;;14.30;;
71435;SDS011;59251;51.326;12.370;2023-04-21T04:23:15;33.50;;;14.93;;
71435;SDS011;59251;51.326;12.370;2023-04-21T04:25:40;37.85;;;16.33;;
71435;SDS011;59251;51.326;12.370;2023-04-21T04:28:06;32.90;;;15.43;;
71435;SDS011;59251;51.326;12.370;2023-04-21T04:30:32;36.88;;;16.48;;
71435;SDS011;59251;51.326;12.370;2023-04-21T04:32:58;32.50;;;16.17;;
71435;SDS011;59251;51.326;12.370;2023-04-21T04:35:23;34.25;;;16.50;;
71435;SDS011;59251;51.326;12.370;2023-04-21T04:37:48;30.03;;;14.70;;
71435;SDS011;59251;51.326;12.370;2023-04-21T04:40:14;32.73;;;15.57;;
71435;SDS011;59251;51.326;12.370;2023-04-21T04:42:40;32.95;;;14.60;;
71435;SDS011;59251;51.326;12.370;2023-04-21T04:45:06;32.55;;;14.80;;
71435;SDS011;59251;51.326;12.370;2023-04-21T04:47:33;30.17;;;14.70;;
71435;SDS011;59251;51.326;12.370;2023-04-21T04:49:59;32.88;;;15.10;;
71435;SDS011;59251;51.326;12.370;2023-04-21T04:52:24;31.17;;;14.97;;
71435;SDS011;59251;51.326;12.370;2023-04-21T04:54:50;35.55;;;13.80;;
71435;SDS011;59251;51.326;12.370;2023-04-21T04:57:15;31.80;;;14.70;;
71435;SDS011;59251;51.326;12.370;2023-04-21T04:59:41;27.77;;;13.17;;
71435;SDS011;59251;51.326;12.370;2023-04-21T05:02:06;27.87;;;13.27;;
71435;SDS011;59251;51.326;12.370;2023-04-21T05:04:32;29.75;;;13.23;;
71435;SDS011;59251;51.326;12.370;2023-04-21T05:06:58;24.40;;;11.93;;
71435;SDS011;59251;51.326;12.370;2023-04-21T05:09:23;26.65;;;12.20;;
71435;SDS011;59251;51.326;12.370;2023-04-21T05:11:49;28.63;;;11.87;;
71435;SDS011;59251;51.326;12.370;2023-04-21T05:14:15;30.42;;;13.02;;
71435;SDS011;59251;51.326;12.370;2023-04-21T05:16:42;27.30;;;12.10;;
71435;SDS011;59251;51.326;12.370;2023-04-21T05:19:07;35.80;;;12.90;;
71435;SDS011;59251;51.326;12.370;2023-04-21T05:21:33;22.73;;;11.13;;
71435;SDS011;59251;51.326;12.370;2023-04-21T05:23:58;26.40;;;10.47;;
71435;SDS011;59251;51.326;12.370;2023-04-21T05:26:24;23.77;;;10.40;;
71435;SDS011;59251;51.326;12.370;2023-04-21T05:28:51;23.85;;;11.50;;
71435;SDS011;59251;51.326;12.370;2023-04-21T05:31:17;21.70;;;9.53;;
71435;SDS011;59251;51.326;12.370;2023-04-21T05:33:43;26.85;;;10.48;;
71435;SDS011;59251;51.326;12.370;2023-04-21T05:36:08;19.70;;;9.43;;
71435;SDS011;59251;51.326;12.370;2023-04-21T05:38:35;21.67;;;10.15;;
71435;SDS011;59251;51.326;12.370;2023-04-21T05:41:01;25.67;;;10.80;;
71435;SDS011;59251;51.326;12.370;2023-04-21T05:43:27;21.90;;;9.65;;
71435;SDS011;59251;51.326;12.370;2023-04-21T05:45:52;23.07;;;9.77;;
71435;SDS011;59251;51.326;12.370;2023-04-21T05:48:18;19.33;;;10.43;;
71435;SDS011;59251;51.326;12.370;2023-04-21T05:50:43;20.35;;;9.18;;
71435;SDS011;59251;51.326;12.370;2023-04-21T05:53:08;26.77;;;10.67;;
71435;SDS011;59251;51.326;12.370;2023-04-21T05:55:34;26.20;;;9.90;;
71435;SDS011;59251;51.326;12.370;2023-04-21T05:58:00;23.77;;;9.65;;
71435;SDS011;59251;51.326;12.370;2023-04-21T06:00:26;23.00;;;9.67;;
71435;SDS011;59251;51.326;12.370;2023-04-21T06:02:51;27.10;;;9.90;;
71435;SDS011;59251;51.326;12.370;2023-04-21T06:05:17;25.77;;;10.40;;
71435;SDS011;59251;51.326;12.370;2023-04-21T06:07:42;24.98;;;9.77;;
71435;SDS011;59251;51.326;12.370;2023-04-21T06:10:09;21.37;;;9.53;;
71435;SDS011;59251;51.326;12.370;2023-04-21T06:12:35;21.77;;;9.25;;
71435;SDS011;59251;51.326;12.370;2023-04-21T06:15:00;22.13;;;8.90;;
71435;SDS011;59251;51.326;12.370;2023-04-21T06:17:26;22.98;;;9.75;;
71435;SDS011;59251;51.326;12.370;2023-04-21T06:19:51;22.83;;;9.53;;
71435;SDS011;59251;51.326;12.370;2023-04-21T06:22:20;22.92;;;9.80;;
71435;SDS011;59251;51.326;12.370;2023-04-21T06:24:49;23.45;;;10.60;;
71435;SDS011;59251;51.326;12.370;2023-04-21T06:27:14;23.65;;;10.75;;
71435;SDS011;59251;51.326;12.370;2023-04-21T06:29:40;24.33;;;9.40;;
71435;SDS011;59251;51.326;12.370;2023-04-21T06:32:11;22.60;;;9.88;;
71435;SDS011;59251;51.326;12.370;2023-04-21T06:34:37;18.15;;;8.02;;
71435;SDS011;59251;51.326;12.370;2023-04-21T06:37:03;21.30;;;9.43;;
71435;SDS011;59251;51.326;12.370;2023-04-21T06:39:29;21.77;;;9.77;;
71435;SDS011;59251;51.326;12.370;2023-04-21T06:41:54;21.63;;;9.10;;
71435;SDS011;59251;51.326;12.370;2023-04-21T06:44:22;22.17;;;8.63;;
71435;SDS011;59251;51.326;12.370;2023-04-21T06:46:47;19.83;;;9.13;;
71435;SDS011;59251;51.326;12.370;2023-04-21T06:49:13;20.73;;;9.47;;
71435;SDS011;59251;51.326;12.370;2023-04-21T06:51:38;19.80;;;8.80;;
71435;SDS011;59251;51.326;12.370;2023-04-21T06:54:03;25.67;;;9.20;;
71435;SDS011;59251;51.326;12.370;2023-04-21T06:56:29;19.10;;;8.93;;
71435;SDS011;59251;51.326;12.370;2023-04-21T06:58:55;20.45;;;9.90;;
71435;SDS011;59251;51.326;12.370;2023-04-21T07:01:21;23.45;;;9.13;;
71435;SDS011;59251;51.326;12.370;2023-04-21T07:03:48;21.15;;;8.43;;
71435;SDS011;59251;51.326;12.370;2023-04-21T07:06:14;19.73;;;7.82;;
71435;SDS011;59251;51.326;12.370;2023-04-21T07:08:39;22.03;;;8.40;;
71435;SDS011;59251;51.326;12.370;2023-04-21T07:11:05;22.60;;;8.65;;
71435;SDS011;59251;51.326;12.370;2023-04-21T07:13:31;16.83;;;7.37;;
71435;SDS011;59251;51.326;12.370;2023-04-21T07:15:56;18.63;;;7.55;;
71435;SDS011;59251;51.326;12.370;2023-04-21T07:18:22;17.80;;;7.87;;
71435;SDS011;59251;51.326;12.370;2023-04-21T07:20:47;18.10;;;8.10;;
71435;SDS011;59251;51.326;12.370;2023-04-21T07:23:13;22.00;;;9.00;;
71435;SDS011;59251;51.326;12.370;2023-04-21T07:25:38;18.80;;;8.00;;
71435;SDS011;59251;51.326;12.370;2023-04-21T07:28:03;21.63;;;7.63;;
71435;SDS011;59251;51.326;12.370;2023-04-21T07:30:29;23.37;;;8.30;;
71435;SDS011;59251;51.326;12.370;2023-04-21T07:32:55;19.15;;;8.27;;
71435;SDS011;59251;51.326;12.370;2023-04-21T07:35:21;20.83;;;8.18;;
71435;SDS011;59251;51.326;12.370;2023-04-21T07:37:47;29.40;;;8.02;;
71435;SDS011;59251;51.326;12.370;2023-04-21T07:40:12;23.07;;;8.43;;
71435;SDS011;59251;51.326;12.370;2023-04-21T07:42:38;20.10;;;8.48;;
71435;SDS011;59251;51.326;12.370;2023-04-21T07:45:04;17.77;;;7.77;;
71435;SDS011;59251;51.326;12.370;2023-04-21T07:47:30;18.77;;;8.70;;
71435;SDS011;59251;51.326;12.370;2023-04-21T07:49:55;19.43;;;6.63;;
71435;SDS011;59251;51.326;12.370;2023-04-21T07:52:21;17.80;;;6.72;;
71435;SDS011;59251;51.326;12.370;2023-04-21T07:54:46;16.13;;;6.50;;
71435;SDS011;59251;51.326;12.370;2023-04-21T07:57:12;18.67;;;7.23;;
71435;SDS011;59251;51.326;12.370;2023-04-21T07:59:37;16.50;;;6.63;;
71435;SDS011;59251;51.326;12.370;2023-04-21T08:02:03;16.55;;;6.85;;
71435;SDS011;59251;51.326;12.370;2023-04-21T08:04:29;15.67;;;6.73;;
71435;SDS011;59251;51.326;12.370;2023-04-21T08:06:54;17.40;;;7.03;;
71435;SDS011;59251;51.326;12.370;2023-04-21T08:09:19;16.77;;;6.38;;
71435;SDS011;59251;51.326;12.370;2023-04-21T08:11:45;16.87;;;6.47;;
71435;SDS011;59251;51.326;12.370;2023-04-21T08:14:11;16.88;;;6.60;;
71435;SDS011;59251;51.326;12.370;2023-04-21T08:16:37;17.47;;;7.27;;
71435;SDS011;59251;51.326;12.370;2023-04-21T08:19:03;17.80;;;7.10;;
71435;SDS011;59251;51.326;12.370;2023-04-21T08:21:28;14.25;;;6.43;;
71435;SDS011;59251;51.326;12.370;2023-04-21T08:23:55;16.10;;;6.10;;
71435;SDS011;59251;51.326;12.370;2023-04-21T08:26:21;14.95;;;6.00;;
71435;SDS011;59251;51.326;12.370;2023-04-21T08:28:47;15.70;;;6.50;;
71435;SDS011;59251;51.326;12.370;2023-04-21T08:31:14;19.20;;;6.93;;
71435;SDS011;59251;51.326;12.370;2023-04-21T08:33:39;14.68;;;6.10;;
71435;SDS011;59251;51.326;12.370;2023-04-21T08:36:05;16.17;;;6.33;;
71435;SDS011;59251;51.326;12.370;2023-04-21T08:38:31;18.50;;;6.55;;
71435;SDS011;59251;51.326;12.370;2023-04-21T08:40:57;18.17;;;6.13;;
71435;SDS011;59251;51.326;12.370;2023-04-21T08:43:24;14.05;;;5.95;;
71435;SDS011;59251;51.326;12.370;2023-04-21T08:45:49;16.93;;;4.97;;
71435;SDS011;59251;51.326;12.370;2023-04-21T08:48:18;15.80;;;5.38;;
71435;SDS011;59251;51.326;12.370;2023-04-21T08:50:46;11.52;;;5.05;;
71435;SDS011;59251;51.326;12.370;2023-04-21T08:53:12;12.27;;;5.30;;
71435;SDS011;59251;51.326;12.370;2023-04-21T08:55:39;14.70;;;4.70;;
71435;SDS011;59251;51.326;12.370;2023-04-21T08:58:05;13.98;;;4.30;;
71435;SDS011;59251;51.326;12.370;2023-04-21T09:00:33;15.52;;;4.80;;
71435;SDS011;59251;51.326;12.370;2023-04-21T09:02:59;13.87;;;4.93;;
71435;SDS011;59251;51.326;12.370;2023-04-21T09:05:25;15.07;;;5.03;;
71435;SDS011;59251;51.326;12.370;2023-04-21T09:08:13;15.32;;;5.45;;
71435;SDS011;59251;51.326;12.370;2023-04-21T09:10:43;13.10;;;4.37;;
71435;SDS011;59251;51.326;12.370;2023-04-21T09:13:10;12.82;;;4.40;;
71435;SDS011;59251;51.326;12.370;2023-04-21T09:15:39;15.80;;;4.85;;
71435;SDS011;59251;51.326;12.370;2023-04-21T09:18:27;15.67;;;4.90;;
71435;SDS011;59251;51.326;12.370;2023-04-21T09:21:09;15.30;;;4.88;;
71435;SDS011;59251;51.326;12.370;2023-04-21T09:23:46;14.90;;;4.38;;
71435;SDS011;59251;51.326;12.370;2023-04-21T09:26:16;10.80;;;3.72;;
71435;SDS011;59251;51.326;12.370;2023-04-21T09:28:44;11.48;;;4.72;;
71435;SDS011;59251;51.326;12.370;2023-04-21T09:31:14;16.57;;;4.70;;
71435;SDS011;59251;51.326;12.370;2023-04-21T09:33:47;13.40;;;4.75;;
71435;SDS011;59251;51.326;12.370;2023-04-21T09:36:21;12.80;;;3.90;;
71435;SDS011;59251;51.326;12.370;2023-04-21T09:41:27;9.65;;;3.28;;
71435;SDS011;59251;51.326;12.370;2023-04-21T09:43:52;10.40;;;3.17;;
71435;SDS011;59251;51.326;12.370;2023-04-21T09:46:18;12.93;;;3.83;;
71435;SDS011;59251;51.326;12.370;2023-04-21T09:48:45;13.13;;;4.05;;
71435;SDS011;59251;51.326;12.370;2023-04-21T09:51:11;8.90;;;3.73;;
71435;SDS011;59251;51.326;12.370;2023-04-21T09:53:38;11.35;;;3.55;;
71435;SDS011;59251;51.326;12.370;2023-04-21T09:56:05;11.10;;;3.40;;
71435;SDS011;59251;51.326;12.370;2023-04-21T09:58:38;13.45;;;4.00;;
71435;SDS011;59251;51.326;12.370;2023-04-21T10:01:08;10.05;;;3.10;;
71435;SDS011;59251;51.326;12.370;2023-04-21T10:03:34;13.03;;;3.13;;
71435;SDS011;59251;51.326;12.370;2023-04-21T10:06:03;13.50;;;3.10;;
71435;SDS011;59251;51.326;12.370;2023-04-21T10:08:29;9.80;;;3.30;;
71435;SDS011;59251;51.326;12.370;2023-04-21T10:10:55;14.35;;;3.38;;
71435;SDS011;59251;51.326;12.370;2023-04-21T10:13:21;14.77;;;3.17;;
71435;SDS011;59251;51.326;12.370;2023-04-21T10:15:47;11.93;;;2.97;;
71435;SDS011;59251;51.326;12.370;2023-04-21T10:18:14;10.30;;;3.73;;
71435;SDS011;59251;51.326;12.370;2023-04-21T10:23:49;8.98;;;2.70;;
71435;SDS011;59251;51.326;12.370;2023-04-21T10:28:51;8.97;;;3.10;;
71435;SDS011;59251;51.326;12.370;2023-04-21T10:31:19;8.88;;;2.50;;
71435;SDS011;59251;51.326;12.370;2023-04-21T10:36:31;12.43;;;2.92;;
71435;SDS011;59251;51.326;12.370;2023-04-21T10:39:01;13.63;;;3.30;;
71435;SDS011;59251;51.326;12.370;2023-04-21T10:44:00;12.50;;;2.92;;
71435;SDS011;59251;51.326;12.370;2023-04-21T10:46:46;13.23;;;3.05;;
71435;SDS011;59251;51.326;12.370;2023-04-21T10:49:19;10.95;;;2.85;;
71435;SDS011;59251;51.326;12.370;2023-04-21T10:54:28;10.23;;;3.00;;
71435;SDS011;59251;51.326;12.370;2023-04-21T10:57:00;9.32;;;2.83;;
71435;SDS011;59251;51.326;12.370;2023-04-21T10:59:26;13.10;;;3.33;;
71435;SDS011;59251;51.326;12.370;2023-04-21T11:01:51;11.90;;;3.05;;
71435;SDS011;59251;51.326;12.370;2023-04-21T11:04:17;10.47;;;3.13;;
71435;SDS011;59251;51.326;12.370;2023-04-21T11:09:33;9.03;;;2.63;;
71435;SDS011;59251;51.326;12.370;2023-04-21T11:11:59;10.38;;;3.10;;
71435;SDS011;59251;51.326;12.370;2023-04-21T11:14:27;8.63;;;2.90;;
71435;SDS011;59251;51.326;12.370;2023-04-21T11:16:53;14.18;;;3.15;;
71435;SDS011;59251;51.326;12.370;2023-04-21T11:19:18;16.37;;;5.27;;
71435;SDS011;59251;51.326;12.370;2023-04-21T11:21:48;9.02;;;2.83;;
71435;SDS011;59251;51.326;12.370;2023-04-21T11:24:13;18.10;;;3.80;;
71435;SDS011;59251;51.326;12.370;2023-04-21T11:26:40;10.55;;;2.58;;
71435;SDS011;59251;51.326;12.370;2023-04-21T11:29:09;9.82;;;2.70;;
71435;SDS011;59251;51.326;12.370;2023-04-21T11:31:36;8.32;;;2.60;;
71435;SDS011;59251;51.326;12.370;2023-04-21T11:34:03;9.97;;;2.90;;
71435;SDS011;59251;51.326;12.370;2023-04-21T11:36:33;12.10;;;3.00;;
71435;SDS011;59251;51.326;12.370;2023-04-21T11:39:03;10.43;;;2.90;;
71435;SDS011;59251;51.326;12.370;2023-04-21T11:41:32;11.57;;;3.33;;
71435;SDS011;59251;51.326;12.370;2023-04-21T11:43:57;9.30;;;2.80;;
71435;SDS011;59251;51.326;12.370;2023-04-21T11:46:24;10.65;;;3.08;;
71435;SDS011;59251;51.326;12.370;2023-04-21T11:49:00;13.63;;;3.13;;
71435;SDS011;59251;51.326;12.370;2023-04-21T11:51:31;10.50;;;2.83;;
71435;SDS011;59251;51.326;12.370;2023-04-21T11:53:57;11.32;;;2.88;;
71435;SDS011;59251;51.326;12.370;2023-04-21T11:56:23;9.88;;;3.25;;
71435;SDS011;59251;51.326;12.370;2023-04-21T11:58:49;11.37;;;2.93;;
71435;SDS011;59251;51.326;12.370;2023-04-21T12:01:19;7.30;;;2.70;;
71435;SDS011;59251;51.326;12.370;2023-04-21T12:03:51;10.85;;;2.90;;
71435;SDS011;59251;51.326;12.370;2023-04-21T12:06:24;9.70;;;3.08;;
71435;SDS011;59251;51.326;12.370;2023-04-21T12:08:54;9.37;;;2.97;;
71435;SDS011;59251;51.326;12.370;2023-04-21T12:11:22;9.98;;;2.88;;
71435;SDS011;59251;51.326;12.370;2023-04-21T12:13:48;9.90;;;3.15;;
71435;SDS011;59251;51.326;12.370;2023-04-21T12:16:14;9.13;;;2.90;;
71435;SDS011;59251;51.326;12.370;2023-04-21T12:18:41;13.87;;;3.00;;
71435;SDS011;59251;51.326;12.370;2023-04-21T12:21:06;13.13;;;3.10;;
71435;SDS011;59251;51.326;12.370;2023-04-21T12:23:32;11.63;;;2.77;;
71435;SDS011;59251;51.326;12.370;2023-04-21T12:25:57;9.95;;;2.50;;
71435;SDS011;59251;51.326;12.370;2023-04-21T12:28:23;10.47;;;2.70;;
71435;SDS011;59251;51.326;12.370;2023-04-21T12:30:48;8.53;;;3.17;;
71435;SDS011;59251;51.326;12.370;2023-04-21T12:33:13;9.83;;;3.37;;
71435;SDS011;59251;51.326;12.370;2023-04-21T12:35:39;9.53;;;3.27;;
71435;SDS011;59251;51.326;12.370;2023-04-21T12:38:04;12.63;;;3.50;;
71435;SDS011;59251;51.326;12.370;2023-04-21T12:40:30;8.53;;;3.00;;
71435;SDS011;59251;51.326;12.370;2023-04-21T12:42:56;10.55;;;2.85;;
71435;SDS011;59251;51.326;12.370;2023-04-21T12:45:21;9.13;;;3.20;;
71435;SDS011;59251;51.326;12.370;2023-04-21T12:47:47;10.38;;;3.30;;
71435;SDS011;59251;51.326;12.370;2023-04-21T12:50:12;7.70;;;3.07;;
71435;SDS011;59251;51.326;12.370;2023-04-21T12:52:38;9.47;;;3.17;;
71435;SDS011;59251;51.326;12.370;2023-04-21T12:55:03;9.95;;;2.90;;
71435;SDS011;59251;51.326;12.370;2023-04-21T12:57:30;10.83;;;2.90;;
71435;SDS011;59251;51.326;12.370;2023-04-21T12:59:55;8.82;;;2.72;;
71435;SDS011;59251;51.326;12.370;2023-04-21T13:02:21;7.90;;;2.90;;
71435;SDS011;59251;51.326;12.370;2023-04-21T13:04:46;11.90;;;3.37;;
71435;SDS011;59251;51.326;12.370;2023-04-21T13:07:12;9.60;;;3.07;;
71435;SDS011;59251;51.326;12.370;2023-04-21T13:09:38;7.50;;;2.78;;
71435;SDS011;59251;51.326;12.370;2023-04-21T13:12:04;11.27;;;3.00;;
71435;SDS011;59251;51.326;12.370;2023-04-21T13:14:29;8.73;;;2.73;;
71435;SDS011;59251;51.326;12.370;2023-04-21T13:16:55;7.80;;;3.10;;
71435;SDS011;59251;51.326;12.370;2023-04-21T13:19:21;10.53;;;2.90;;
71435;SDS011;59251;51.326;12.370;2023-04-21T13:21:46;10.50;;;3.30;;
71435;SDS011;59251;51.326;12.370;2023-04-21T13:24:12;11.80;;;2.97;;
71435;SDS011;59251;51.326;12.370;2023-04-21T13:26:37;9.80;;;3.17;;
71435;SDS011;59251;51.326;12.370;2023-04-21T13:29:03;12.45;;;2.78;;
71435;SDS011;59251;51.326;12.370;2023-04-21T13:31:29;8.47;;;2.80;;
71435;SDS011;59251;51.326;12.370;2023-04-21T13:33:54;10.33;;;3.20;;
71435;SDS011;59251;51.326;12.370;2023-04-21T13:36:20;11.18;;;3.20;;
71435;SDS011;59251;51.326;12.370;2023-04-21T13:38:46;12.83;;;3.00;;
71435;SDS011;59251;51.326;12.370;2023-04-21T13:41:12;10.63;;;3.25;;
71435;SDS011;59251;51.326;12.370;2023-04-21T13:43:37;10.80;;;3.20;;
71435;SDS011;59251;51.326;12.370;2023-04-21T13:46:03;11.63;;;3.10;;
71435;SDS011;59251;51.326;12.370;2023-04-21T13:48:29;13.32;;;3.25;;
71435;SDS011;59251;51.326;12.370;2023-04-21T13:50:54;9.43;;;3.27;;
71435;SDS011;59251;51.326;12.370;2023-04-21T13:53:20;11.77;;;2.90;;
71435;SDS011;59251;51.326;12.370;2023-04-21T13:55:45;9.47;;;3.23;;
71435;SDS011;59251;51.326;12.370;2023-04-21T13:58:12;8.88;;;3.20;;
71435;SDS011;59251;51.326;12.370;2023-04-21T14:00:38;11.60;;;3.90;;
71435;SDS011;59251;51.326;12.370;2023-04-21T14:03:03;11.70;;;3.40;;
71435;SDS011;59251;51.326;12.370;2023-04-21T14:05:30;10.15;;;3.10;;
71435;SDS011;59251;51.326;12.370;2023-04-21T14:07:56;9.63;;;3.30;;
71435;SDS011;59251;51.326;12.370;2023-04-21T14:10:21;7.23;;;2.77;;
71435;SDS011;59251;51.326;12.370;2023-04-21T14:12:47;6.77;;;2.83;;
71435;SDS011;59251;51.326;12.370;2023-04-21T14:15:13;8.13;;;2.72;;
71435;SDS011;59251;51.326;12.370;2023-04-21T14:17:38;10.70;;;2.90;;
71435;SDS011;59251;51.326;12.370;2023-04-21T14:20:04;9.87;;;2.70;;
71435;SDS011;59251;51.326;12.370;2023-04-21T14:22:31;11.27;;;2.60;;
71435;SDS011;59251;51.326;12.370;2023-04-21T14:24:56;7.27;;;2.50;;
71435;SDS011;59251;51.326;12.370;2023-04-21T14:27:22;7.83;;;2.83;;
71435;SDS011;59251;51.326;12.370;2023-04-21T14:29:47;8.20;;;2.93;;
71435;SDS011;59251;51.326;12.370;2023-04-21T14:32:13;11.13;;;2.50;;